Time;durP1;ratioP1;P1;durP2;ratioP2;P2;SDS_P1;SDS_P2;PMS_P1;PMS_P2;Temp;Humidity;BMP_temperature;BMP_pressure;BME280_temperature;BME280_humidity;BME280_pressure;Samples;Min_cycle;Max_cycle;Signal;HPM_P1;HPM_P2
2024/03/18 00:07:57;;;;;;;4.00;3.70;;;1.30;99.90;;;;;;5719404;24;20737;-84
2024/03/18 00:38:29;;;;;;;5.40;3.70;;;1.20;99.90;;;;;;5674122;24;20249;-84
2024/03/18 01:29:33;;;;;;;3.73;3.43;;;1.20;99.90;;;;;;5689189;24;20192;-83
2024/03/18 01:49:42;;;;;;;4.20;3.80;;;1.20;99.90;;;;;;5690813;24;20266;-83
2024/03/18 02:09:59;;;;;;;4.30;3.90;;;1.20;99.90;;;;;;5681119;24;20228;-85
2024/03/18 02:30:26;;;;;;;4.43;3.83;;;1.10;99.90;;;;;;5672345;24;20193;-86
2024/03/18 02:50:39;;;;;;;4.30;4.00;;;1.00;99.90;;;;;;5758968;24;20948;-84
2024/03/18 03:15:25;;;;;;;5.47;3.97;;;0.90;99.90;;;;;;5518708;24;20658;-83
2024/03/18 04:11:49;;;;;;;5.23;4.60;;;0.80;99.90;;;;;;5686557;24;20200;-84
2024/03/18 04:42:05;;;;;;;7.23;4.53;;;0.60;99.90;;;;;;5819487;23;20392;-84
2024/03/18 05:07:22;;;;;;;6.00;5.40;;;0.70;99.90;;;;;;5629099;24;20245;-84
2024/03/18 05:27:34;;;;;;;7.97;6.67;;;0.90;99.90;;;;;;5511672;25;20578;-83
2024/03/18 05:52:59;;;;;;;7.77;5.80;;;0.80;99.90;;;;;;5637341;24;20230;-86
2024/03/18 06:13:39;;;;;;;10.70;5.70;;;0.90;99.90;;;;;;5785097;24;20183;-85
2024/03/18 06:17:58;;;;;;;8.67;5.83;;;1.20;99.90;;;;;;5738065;24;20412;-83
2024/03/18 06:43:40;;;;;;;7.37;4.63;;;1.30;99.90;;;;;;5911747;23;20294;-82
2024/03/18 07:04:05;;;;;;;16.53;15.47;;;1.40;99.90;;;;;;5784490;24;20205;-82
2024/03/18 07:29:17;;;;;;;6.53;5.77;;;1.70;99.90;;;;;;5581286;24;20619;-83
2024/03/18 08:25:29;;;;;;;8.10;7.20;;;2.30;99.90;;;;;;5683567;24;20539;-81
2024/03/18 08:45:50;;;;;;;11.67;8.60;;;2.80;99.90;;;;;;5672486;24;20211;-85
2024/03/18 09:06:06;;;;;;;9.10;8.20;;;3.30;99.90;;;;;;5746689;24;20251;-84
2024/03/18 09:31:12;;;;;;;7.73;7.03;;;4.10;99.90;;;;;;5773451;24;20294;-80
2024/03/18 10:01:14;;;;;;;8.07;6.33;;;3.40;99.90;;;;;;5768190;24;20310;-85
2024/03/18 10:16:44;;;;;;;7.50;6.50;;;3.50;99.90;;;;;;5780903;24;20241;-83
2024/03/18 10:37:17;;;;;;;6.17;5.60;;;3.30;99.90;;;;;;5883212;24;20219;-85
2024/03/18 11:02:30;;;;;;;7.87;6.03;;;3.50;99.90;;;;;;5743095;24;20167;-85
2024/03/18 11:28:11;;;;;;;12.57;8.10;;;3.70;99.90;;;;;;5660019;24;20215;-82
2024/03/18 12:08:34;;;;;;;6.83;6.23;;;4.70;99.90;;;;;;6058717;23;20366;-86
2024/03/18 12:28:44;;;;;;;9.53;7.70;;;4.90;99.90;;;;;;5894723;23;20522;-80
2024/03/18 12:54:22;;;;;;;7.57;6.97;;;6.20;99.90;;;;;;5825056;24;20594;-85
2024/03/18 13:19:35;;;;;;;6.40;5.80;;;5.10;99.90;;;;;;5724650;24;20415;-82
2024/03/18 13:45:12;;;;;;;6.23;5.60;;;4.90;99.90;;;;;;5902077;23;20232;-85
2024/03/18 14:14:56;;;;;;;5.40;5.00;;;4.40;99.90;;;;;;5484029;24;20770;-84
2024/03/18 15:00:46;;;;;;;5.93;5.43;;;4.20;99.90;;;;;;5770773;24;21021;-84
2024/03/18 15:56:20;;;;;;;7.17;5.57;;;3.90;99.90;;;;;;5850540;23;20531;-86
2024/03/18 16:12:05;;;;;;;5.67;4.53;;;3.90;99.90;;;;;;5921190;23;20238;-86
2024/03/18 16:32:33;;;;;;;3.40;3.10;;;3.70;99.90;;;;;;5846338;23;20182;-85
2024/03/18 18:08:39;;;;;;;9.90;7.20;;;2.80;99.90;;;;;;5912273;23;20215;-87
2024/03/18 18:33:23;;;;;;;8.97;6.07;;;2.20;99.90;;;;;;5621412;24;20950;-87
2024/03/18 19:04:24;;;;;;;10.33;7.10;;;2.20;99.90;;;;;;5686807;24;20577;-86
2024/03/18 19:29:46;;;;;;;15.47;8.90;;;2.40;99.90;;;;;;5853105;24;20703;-85
2024/03/18 19:49:35;;;;;;;14.87;9.73;;;2.50;99.90;;;;;;6131587;23;20549;-85
2024/03/18 20:29:47;;;;;;;17.50;12.20;;;2.70;99.90;;;;;;5770522;23;20967;-86
2024/03/18 20:50:24;;;;;;;16.73;11.70;;;2.70;99.90;;;;;;5612321;24;20944;-86
2024/03/18 21:51:01;;;;;;;22.03;14.07;;;2.40;99.90;;;;;;5862684;23;20391;-85
